Terminal Aerodrome Forecast
Issued by NWS

Current Version | Previous Version | Text Only | Print | Product List | Glossary On
Versions: 1 2 3 4 5 6 7 8 9 10 11 12 13 14 15 16 17 18
000
FTUS46 KMTR 261100
TAFMRY
TAF
KMRY 261120Z 2612/2712 24003KT P6SM -DZ OVC014
     FM261400 23003KT P6SM -DZ OVC010
     FM261800 28007KT P6SM BKN012 BKN018
     FM262100 27011G16KT P6SM FEW012 SCT018
     FM270100 25008KT P6SM OVC015
     FM270500 24003KT P6SM FEW007 OVC010=

USA.gov is the U.S. government's official web portal to all federal, state and local government web resources and services.